createdAt,value
2019-03-26T00:00:00.685Z,7.91
2019-03-26T00:01:00.663Z,7.91
2019-03-26T00:02:00.637Z,7.90
2019-03-26T00:03:00.618Z,7.87
2019-03-26T00:04:05.999Z,7.85
2019-03-26T00:05:00.568Z,7.85
2019-03-26T00:06:00.544Z,7.84
2019-03-26T00:07:00.519Z,7.85
2019-03-26T00:08:00.495Z,7.84
2019-03-26T00:09:00.472Z,7.85
2019-03-26T00:10:00.468Z,7.84
2019-03-26T00:11:00.428Z,7.80
2019-03-26T00:12:00.403Z,7.85
2019-03-26T00:13:00.383Z,7.80
2019-03-26T00:14:00.356Z,7.85
2019-03-26T00:15:00.482Z,7.87
2019-03-26T00:16:00.308Z,7.80
2019-03-26T00:17:00.288Z,7.87
2019-03-26T00:18:00.264Z,7.84
2019-03-26T00:19:00.239Z,7.95
2019-03-26T00:20:00.355Z,7.87
2019-03-26T00:21:00.188Z,7.87
2019-03-26T00:22:00.166Z,7.90
2019-03-26T00:23:00.143Z,7.80
2019-03-26T00:24:00.118Z,7.78
2019-03-26T00:25:00.249Z,7.81
2019-03-26T00:26:00.074Z,7.81
2019-03-26T00:27:00.047Z,7.80
2019-03-26T00:28:00.026Z,7.84
2019-03-26T00:29:00.001Z,7.67
2019-03-26T00:29:59.978Z,7.70
2019-03-26T00:31:00.002Z,7.80
2019-03-26T00:31:59.933Z,7.74
2019-03-26T00:32:59.910Z,7.69
2019-03-26T00:33:59.882Z,7.75
2019-03-26T00:34:59.858Z,7.69
2019-03-26T00:35:59.834Z,7.72
2019-03-26T00:36:59.813Z,7.64
2019-03-26T00:37:59.789Z,7.69
2019-03-26T00:38:59.796Z,7.78
2019-03-26T00:39:59.746Z,7.67
2019-03-26T00:40:59.714Z,7.67
2019-03-26T00:41:59.692Z,7.77
2019-03-26T00:42:59.668Z,7.64
2019-03-26T00:43:59.645Z,7.77
2019-03-26T00:44:59.631Z,7.75
2019-03-26T00:45:59.604Z,7.67
2019-03-26T00:46:59.581Z,7.72
2019-03-26T00:47:59.552Z,7.67
2019-03-26T00:48:59.527Z,7.77
2019-03-26T00:49:59.571Z,7.66
2019-03-26T00:50:59.480Z,7.64
2019-03-26T00:51:59.457Z,7.67
2019-03-26T00:52:59.438Z,7.66
2019-03-26T00:53:59.413Z,7.74
2019-03-26T00:54:59.393Z,7.62
2019-03-26T00:55:59.366Z,7.66
2019-03-26T00:56:59.341Z,7.64
2019-03-26T00:58:01.660Z,7.72
2019-03-26T00:58:59.290Z,7.62
2019-03-26T00:59:59.267Z,7.77
2019-03-26T01:00:59.259Z,7.61
2019-03-26T01:01:59.261Z,7.69
2019-03-26T01:02:59.244Z,7.62
2019-03-26T01:03:59.208Z,7.75
2019-03-26T01:04:59.210Z,7.64
2019-03-26T01:05:59.139Z,7.58
2019-03-26T01:06:59.128Z,7.58
2019-03-26T01:07:59.147Z,7.67
2019-03-26T01:08:59.056Z,7.74
2019-03-26T01:09:59.030Z,7.72
2019-03-26T01:10:59.007Z,7.78
2019-03-26T01:11:58.992Z,7.75
2019-03-26T01:12:58.963Z,7.69
2019-03-26T01:13:58.936Z,7.62
2019-03-26T01:14:58.918Z,7.62
2019-03-26T01:15:58.902Z,7.67
2019-03-26T01:16:58.865Z,7.62
2019-03-26T01:17:58.843Z,7.64
2019-03-26T01:18:58.823Z,7.66
2019-03-26T01:19:58.796Z,7.62
2019-03-26T01:20:58.770Z,7.64
2019-03-26T01:21:58.747Z,7.59
2019-03-26T01:22:58.754Z,7.69
2019-03-26T01:23:58.721Z,7.53
2019-03-26T01:24:58.676Z,7.67
2019-03-26T01:25:58.655Z,7.67
2019-03-26T01:26:58.631Z,7.66
2019-03-26T01:27:58.605Z,7.58
2019-03-26T01:28:58.583Z,7.62
2019-03-26T01:29:58.564Z,7.67
2019-03-26T01:30:58.549Z,7.62
2019-03-26T01:31:58.512Z,7.66
2019-03-26T01:32:58.491Z,7.67
2019-03-26T01:33:58.466Z,7.61
2019-03-26T01:34:58.438Z,7.69
2019-03-26T01:35:58.418Z,7.56
2019-03-26T01:36:58.395Z,7.58
2019-03-26T01:37:58.369Z,7.62
2019-03-26T01:38:58.348Z,7.48
2019-03-26T01:39:58.358Z,7.53
2019-03-26T01:40:58.302Z,7.58
2019-03-26T01:41:58.276Z,7.46
2019-03-26T01:42:58.251Z,7.50
2019-03-26T01:43:58.231Z,7.48
2019-03-26T01:44:58.208Z,7.40
2019-03-26T01:45:58.181Z,7.31
2019-03-26T01:46:58.161Z,7.31
2019-03-26T01:47:58.134Z,7.41
2019-03-26T01:48:58.109Z,7.39
2019-03-26T01:49:58.086Z,7.40
2019-03-26T01:50:58.065Z,7.25
2019-03-26T01:51:58.108Z,7.23
2019-03-26T01:52:58.013Z,7.21
2019-03-26T01:53:57.990Z,7.23
2019-03-26T01:54:57.965Z,7.26
2019-03-26T01:55:57.946Z,7.26
2019-03-26T01:56:57.920Z,7.21
2019-03-26T01:57:57.898Z,7.29
2019-03-26T01:58:57.879Z,7.33
2019-03-26T01:59:57.855Z,7.31
2019-03-26T02:00:57.831Z,7.28
2019-03-26T02:01:57.800Z,7.32
2019-03-26T02:02:57.778Z,7.32
2019-03-26T02:03:57.750Z,7.32
2019-03-26T02:05:00.205Z,7.33
2019-03-26T02:05:57.705Z,7.36
2019-03-26T02:06:57.680Z,7.28
2019-03-26T02:07:57.658Z,7.28
2019-03-26T02:08:57.636Z,7.29
2019-03-26T02:09:57.626Z,7.23
2019-03-26T02:10:57.596Z,7.14
2019-03-26T02:11:57.561Z,7.15
2019-03-26T02:12:57.552Z,7.21
2019-03-26T02:13:57.515Z,7.21
2019-03-26T02:14:57.491Z,7.23
2019-03-26T02:15:57.466Z,7.18
2019-03-26T02:16:57.441Z,7.21
2019-03-26T02:17:57.417Z,7.23
2019-03-26T02:18:57.394Z,7.19
2019-03-26T02:19:57.368Z,7.22
2019-03-26T02:20:57.346Z,7.23
2019-03-26T02:21:57.327Z,7.28
2019-03-26T02:22:57.382Z,7.26
2019-03-26T02:23:57.274Z,7.25
2019-03-26T02:24:57.258Z,7.15
2019-03-26T02:25:57.231Z,7.10
2019-03-26T02:26:57.205Z,7.08
2019-03-26T02:27:57.178Z,7.08
2019-03-26T02:28:57.155Z,7.03
2019-03-26T02:29:57.131Z,7.11
2019-03-26T02:30:57.111Z,7.08
2019-03-26T02:31:57.084Z,7.10
2019-03-26T02:32:57.061Z,7.13
2019-03-26T02:33:57.039Z,7.21
2019-03-26T02:34:57.010Z,7.13
2019-03-26T02:35:56.987Z,7.23
2019-03-26T02:36:56.962Z,7.22
2019-03-26T02:37:56.959Z,7.10
2019-03-26T02:38:56.910Z,7.21
2019-03-26T02:39:56.892Z,7.19
2019-03-26T02:40:56.864Z,7.21
2019-03-26T02:41:56.847Z,7.21
2019-03-26T02:42:56.817Z,7.15
2019-03-26T02:43:56.804Z,7.19
2019-03-26T02:44:56.767Z,7.21
2019-03-26T02:45:56.742Z,7.21
2019-03-26T02:46:56.727Z,7.21
2019-03-26T02:47:56.715Z,7.21
2019-03-26T02:48:56.676Z,7.25
2019-03-26T02:49:56.660Z,7.19
2019-03-26T02:50:56.621Z,7.23
2019-03-26T02:51:56.604Z,7.18
2019-03-26T02:52:56.584Z,7.21
2019-03-26T02:53:56.557Z,7.22
2019-03-26T02:54:56.530Z,7.18
2019-03-26T02:55:56.504Z,7.21
2019-03-26T02:56:56.478Z,7.18
2019-03-26T02:57:56.455Z,7.21
2019-03-26T02:58:56.429Z,7.19
2019-03-26T02:59:56.407Z,7.22
2019-03-26T03:00:56.384Z,7.31
2019-03-26T03:01:56.371Z,7.26
2019-03-26T03:02:56.345Z,7.29
2019-03-26T03:03:56.311Z,7.33
2019-03-26T03:04:56.285Z,7.25
2019-03-26T03:05:56.265Z,7.32
2019-03-26T03:06:56.238Z,7.29
2019-03-26T03:07:56.216Z,7.28
2019-03-26T03:08:56.194Z,7.33
2019-03-26T03:09:56.167Z,7.29
2019-03-26T03:10:56.147Z,7.40
2019-03-26T03:11:56.127Z,7.43
2019-03-26T03:12:56.092Z,7.37
2019-03-26T03:13:56.076Z,7.41
2019-03-26T03:14:56.048Z,7.43
2019-03-26T03:15:56.023Z,7.43
2019-03-26T03:16:56.006Z,7.33
2019-03-26T03:17:55.987Z,7.39
2019-03-26T03:18:55.950Z,7.31
2019-03-26T03:19:55.997Z,7.28
2019-03-26T03:20:55.913Z,7.28
2019-03-26T03:21:55.890Z,7.29
2019-03-26T03:22:55.866Z,7.25
2019-03-26T03:23:55.839Z,7.26
2019-03-26T03:24:55.806Z,7.22
2019-03-26T03:25:55.789Z,7.21
2019-03-26T03:26:55.761Z,7.25
2019-03-26T03:27:55.749Z,7.23
2019-03-26T03:28:55.710Z,7.23
2019-03-26T03:29:55.701Z,7.23
2019-03-26T03:30:55.664Z,7.22
2019-03-26T03:31:55.650Z,7.29
2019-03-26T03:32:55.615Z,7.11
2019-03-26T03:33:55.593Z,7.18
2019-03-26T03:34:55.569Z,7.23
2019-03-26T03:35:55.541Z,7.15
2019-03-26T03:36:55.518Z,7.21
2019-03-26T03:37:55.495Z,7.21
2019-03-26T03:38:55.472Z,7.15
2019-03-26T03:39:55.447Z,7.19
2019-03-26T03:40:55.432Z,7.26
2019-03-26T03:41:55.418Z,7.23
2019-03-26T03:42:55.373Z,7.21
2019-03-26T03:43:55.352Z,7.19
2019-03-26T03:44:55.326Z,7.21
2019-03-26T03:45:55.302Z,7.26
2019-03-26T03:46:55.284Z,7.19
2019-03-26T03:47:55.255Z,7.22
2019-03-26T03:48:55.235Z,7.22
2019-03-26T03:49:55.208Z,7.23
2019-03-26T03:50:55.181Z,7.22
2019-03-26T03:51:55.157Z,7.21
2019-03-26T03:52:55.132Z,7.21
2019-03-26T03:53:55.109Z,7.14
2019-03-26T03:54:55.091Z,7.11
2019-03-26T03:55:55.063Z,7.22
2019-03-26T03:56:55.041Z,7.14
2019-03-26T03:57:55.020Z,7.14
2019-03-26T03:58:54.989Z,7.25
2019-03-26T03:59:54.965Z,7.22
2019-03-26T04:00:54.948Z,7.22
2019-03-26T04:01:54.917Z,7.25
2019-03-26T04:02:54.893Z,7.25
2019-03-26T04:03:54.867Z,7.23
2019-03-26T04:04:54.846Z,7.29
2019-03-26T04:06:08.198Z,7.28
2019-03-26T04:06:54.801Z,7.28
2019-03-26T04:07:54.775Z,7.26
2019-03-26T04:08:54.754Z,7.28
2019-03-26T04:09:54.725Z,7.28
2019-03-26T04:10:54.700Z,7.29
2019-03-26T04:11:54.698Z,7.28
2019-03-26T04:12:54.658Z,7.19
2019-03-26T04:13:54.661Z,7.22
2019-03-26T04:14:54.612Z,7.26
2019-03-26T04:15:54.581Z,7.22
2019-03-26T04:16:54.578Z,7.23
2019-03-26T04:17:54.538Z,7.22
2019-03-26T04:18:54.578Z,7.13
2019-03-26T04:19:54.486Z,7.13
2019-03-26T04:20:54.532Z,7.19
2019-03-26T04:21:54.439Z,7.14
2019-03-26T04:22:54.440Z,7.14
2019-03-26T04:23:54.421Z,7.07
2019-03-26T04:24:54.431Z,7.14
2019-03-26T04:25:54.348Z,6.93
2019-03-26T04:26:54.315Z,6.95
2019-03-26T04:27:54.294Z,6.97
2019-03-26T04:28:54.270Z,6.90
2019-03-26T04:29:54.244Z,6.93
2019-03-26T04:30:54.218Z,7.00
2019-03-26T04:31:54.195Z,7.04
2019-03-26T04:32:54.176Z,7.01
2019-03-26T04:33:54.148Z,7.05
2019-03-26T04:34:54.122Z,7.01
2019-03-26T04:35:54.104Z,7.01
2019-03-26T04:36:54.074Z,7.04
2019-03-26T04:37:54.051Z,7.03
2019-03-26T04:38:54.027Z,7.07
2019-03-26T04:39:54.003Z,7.08
2019-03-26T04:40:53.989Z,7.13
2019-03-26T04:41:53.955Z,7.14
2019-03-26T04:42:53.930Z,7.21
2019-03-26T04:43:53.905Z,7.18
2019-03-26T04:44:53.882Z,7.10
2019-03-26T04:45:53.857Z,7.18
2019-03-26T04:46:53.835Z,7.25
2019-03-26T04:47:53.813Z,7.18
2019-03-26T04:48:53.785Z,7.18
2019-03-26T04:49:53.761Z,7.21
2019-03-26T04:50:53.741Z,7.23
2019-03-26T04:51:53.714Z,7.23
2019-03-26T04:52:53.690Z,7.22
2019-03-26T04:53:53.666Z,7.22
2019-03-26T04:54:53.639Z,7.25
2019-03-26T04:55:53.695Z,7.23
2019-03-26T04:56:53.592Z,7.21
2019-03-26T04:57:53.571Z,7.18
2019-03-26T04:58:53.544Z,7.13
2019-03-26T04:59:53.520Z,7.23
2019-03-26T05:00:53.497Z,7.18
2019-03-26T05:01:53.493Z,7.19
2019-03-26T05:02:53.449Z,7.23
2019-03-26T05:03:53.423Z,7.22
2019-03-26T05:04:53.399Z,7.28
2019-03-26T05:05:53.377Z,7.21
2019-03-26T05:06:53.351Z,7.25
2019-03-26T05:07:53.329Z,7.37
2019-03-26T05:08:53.301Z,7.21
2019-03-26T05:09:53.281Z,7.23
2019-03-26T05:10:53.253Z,7.25
2019-03-26T05:11:53.231Z,7.26
2019-03-26T05:12:53.206Z,7.28
2019-03-26T05:13:53.182Z,7.22
2019-03-26T05:14:53.155Z,7.22
2019-03-26T05:15:53.133Z,7.11
2019-03-26T05:16:53.110Z,7.08
2019-03-26T05:17:53.085Z,7.14
2019-03-26T05:18:53.061Z,7.08
2019-03-26T05:19:53.036Z,7.10
2019-03-26T05:20:53.012Z,7.08
2019-03-26T05:21:52.988Z,7.07
2019-03-26T05:22:52.964Z,7.11
2019-03-26T05:23:52.940Z,7.11
2019-03-26T05:24:52.915Z,7.08
2019-03-26T05:25:52.892Z,7.07
2019-03-26T05:26:52.867Z,7.11
2019-03-26T05:27:52.842Z,7.07
2019-03-26T05:28:52.818Z,7.04
2019-03-26T05:29:52.799Z,7.10
2019-03-26T05:30:52.773Z,7.10
2019-03-26T05:31:52.746Z,7.10
2019-03-26T05:32:52.722Z,7.07
2019-03-26T05:33:52.698Z,7.13
2019-03-26T05:34:52.673Z,7.08
2019-03-26T05:35:52.648Z,7.11
2019-03-26T05:36:52.625Z,7.10
2019-03-26T05:37:52.604Z,7.14
2019-03-26T05:38:52.579Z,7.07
2019-03-26T05:39:52.551Z,7.07
2019-03-26T05:40:52.539Z,7.04
2019-03-26T05:41:52.504Z,7.05
2019-03-26T05:42:52.478Z,7.07
2019-03-26T05:43:52.458Z,7.10
2019-03-26T05:44:52.430Z,7.08
2019-03-26T05:45:52.618Z,7.10
2019-03-26T05:46:52.581Z,7.04
2019-03-26T05:47:52.599Z,7.04
2019-03-26T05:48:52.631Z,7.07
2019-03-26T05:49:52.457Z,6.96
2019-03-26T05:50:52.459Z,6.95
2019-03-26T05:51:52.284Z,6.93
2019-03-26T05:52:52.281Z,6.95
2019-03-26T05:53:52.325Z,6.92
2019-03-26T05:54:52.186Z,6.92
2019-03-26T05:55:52.266Z,6.96
2019-03-26T05:56:52.137Z,6.95
2019-03-26T05:57:52.116Z,6.92
2019-03-26T05:58:52.089Z,6.93
2019-03-26T05:59:52.076Z,6.95
2019-03-26T06:00:52.149Z,6.93
2019-03-26T06:01:52.026Z,6.90
2019-03-26T06:02:52.144Z,6.92
2019-03-26T06:03:51.972Z,6.95
2019-03-26T06:04:51.943Z,6.86
2019-03-26T06:05:51.919Z,6.89
2019-03-26T06:07:04.224Z,6.95
2019-03-26T06:07:51.866Z,6.97
2019-03-26T06:08:51.842Z,6.93
2019-03-26T06:09:51.821Z,6.89
2019-03-26T06:10:51.793Z,7.05
2019-03-26T06:11:51.778Z,7.04
2019-03-26T06:12:51.743Z,7.07
2019-03-26T06:13:51.718Z,7.05
2019-03-26T06:14:51.693Z,7.08
2019-03-26T06:15:51.670Z,7.11
2019-03-26T06:16:51.648Z,7.15
2019-03-26T06:17:51.622Z,7.11
2019-03-26T06:18:51.599Z,7.07
2019-03-26T06:19:51.570Z,7.15
2019-03-26T06:20:51.545Z,7.10
2019-03-26T06:21:51.521Z,7.15
2019-03-26T06:22:51.498Z,7.18
2019-03-26T06:23:53.713Z,7.15
2019-03-26T06:24:51.447Z,7.13
2019-03-26T06:25:51.429Z,7.15
2019-03-26T06:26:51.399Z,7.11
2019-03-26T06:27:51.377Z,7.11
2019-03-26T06:28:51.350Z,7.10
2019-03-26T06:29:51.324Z,7.07
2019-03-26T06:30:51.305Z,7.14
2019-03-26T06:31:51.276Z,7.19
2019-03-26T06:32:51.250Z,7.18
2019-03-26T06:33:51.224Z,7.25
2019-03-26T06:34:51.199Z,7.15
2019-03-26T06:35:51.173Z,7.11
2019-03-26T06:36:51.149Z,7.11
2019-03-26T06:37:51.130Z,7.15
2019-03-26T06:38:51.101Z,7.10
2019-03-26T06:39:51.075Z,7.25
2019-03-26T06:40:51.053Z,7.25
2019-03-26T06:41:51.024Z,7.18
2019-03-26T06:42:51.006Z,7.21
2019-03-26T06:43:50.980Z,7.19
2019-03-26T06:44:50.956Z,7.19
2019-03-26T06:45:50.929Z,7.26
2019-03-26T06:46:50.901Z,7.28
2019-03-26T06:47:50.886Z,7.29
2019-03-26T06:48:50.856Z,7.18
2019-03-26T06:49:50.832Z,7.14
2019-03-26T06:50:50.803Z,7.14
2019-03-26T06:51:50.777Z,7.22
2019-03-26T06:52:50.753Z,7.19
2019-03-26T06:53:50.729Z,7.26
2019-03-26T06:54:51.809Z,7.23
2019-03-26T06:55:50.679Z,7.19
2019-03-26T06:56:50.672Z,7.25
2019-03-26T06:57:50.638Z,7.25
2019-03-26T06:58:50.605Z,7.21
2019-03-26T06:59:50.580Z,7.25
2019-03-26T07:00:50.554Z,7.29
2019-03-26T07:01:50.558Z,7.23
2019-03-26T07:02:50.505Z,7.29
2019-03-26T07:03:50.481Z,7.40
2019-03-26T07:04:50.456Z,7.31
2019-03-26T07:05:50.431Z,7.39
2019-03-26T07:06:50.413Z,7.47
2019-03-26T07:07:50.384Z,7.28
2019-03-26T07:08:50.360Z,7.21
2019-03-26T07:09:50.334Z,7.21
2019-03-26T07:10:50.319Z,7.11
2019-03-26T07:11:50.287Z,7.19
2019-03-26T07:12:50.258Z,7.22
2019-03-26T07:13:50.233Z,7.28
2019-03-26T07:14:50.207Z,7.25
2019-03-26T07:15:50.186Z,7.33
2019-03-26T07:16:50.161Z,7.29
2019-03-26T07:17:52.392Z,7.33
2019-03-26T07:18:50.110Z,7.32
2019-03-26T07:19:50.084Z,7.44
2019-03-26T07:20:50.065Z,7.40
2019-03-26T07:21:50.170Z,7.41
2019-03-26T07:22:50.011Z,7.44
2019-03-26T07:23:49.984Z,7.33
2019-03-26T07:24:49.972Z,7.40
2019-03-26T07:25:49.934Z,7.40
2019-03-26T07:26:49.910Z,7.39
2019-03-26T07:27:49.893Z,7.29
2019-03-26T07:28:49.860Z,7.46
2019-03-26T07:29:49.838Z,7.47
2019-03-26T07:30:49.811Z,7.53
2019-03-26T07:31:49.786Z,7.48
2019-03-26T07:32:49.767Z,7.47
2019-03-26T07:33:49.739Z,7.61
2019-03-26T07:34:49.712Z,7.67
2019-03-26T07:35:49.695Z,7.64
2019-03-26T07:36:49.668Z,7.69
2019-03-26T07:37:49.638Z,7.66
2019-03-26T07:38:49.615Z,7.75
2019-03-26T07:39:49.589Z,7.72
2019-03-26T07:40:49.571Z,7.56
2019-03-26T07:41:49.542Z,7.75
2019-03-26T07:42:49.577Z,7.70
2019-03-26T07:43:49.514Z,7.67
2019-03-26T07:44:49.465Z,7.75
2019-03-26T07:45:49.442Z,7.83
2019-03-26T07:46:49.418Z,7.75
2019-03-26T07:47:49.395Z,7.77
2019-03-26T07:48:49.375Z,7.83
2019-03-26T07:49:49.344Z,7.74
2019-03-26T07:50:49.319Z,7.78
2019-03-26T07:51:49.294Z,7.81
2019-03-26T07:52:49.271Z,7.84
2019-03-26T07:53:49.245Z,7.87
2019-03-26T07:54:49.221Z,7.85
2019-03-26T07:55:49.202Z,7.96
2019-03-26T07:56:49.171Z,8.08
2019-03-26T07:57:49.148Z,8.16
2019-03-26T07:58:49.124Z,8.05
2019-03-26T07:59:49.098Z,8.08
2019-03-26T08:00:49.072Z,8.18
2019-03-26T08:01:49.048Z,8.21
2019-03-26T08:02:49.022Z,8.28
2019-03-26T08:03:49.002Z,8.17
2019-03-26T08:04:48.978Z,8.05
2019-03-26T08:05:48.958Z,8.03
2019-03-26T08:06:48.926Z,8.23
2019-03-26T08:07:58.189Z,8.23
2019-03-26T08:08:48.882Z,8.35
2019-03-26T08:09:48.854Z,8.34
2019-03-26T08:10:48.828Z,8.44
2019-03-26T08:11:48.809Z,8.50
2019-03-26T08:12:48.791Z,8.56
2019-03-26T08:13:48.768Z,8.56
2019-03-26T08:14:48.750Z,8.66
2019-03-26T08:15:48.709Z,8.63
2019-03-26T08:16:48.686Z,8.69
2019-03-26T08:17:48.666Z,8.75
2019-03-26T08:18:48.642Z,8.66
2019-03-26T08:19:48.616Z,8.57
2019-03-26T08:20:48.591Z,8.69
2019-03-26T08:21:48.570Z,8.54
2019-03-26T08:22:48.545Z,8.44
2019-03-26T08:23:48.523Z,8.44
2019-03-26T08:24:48.494Z,8.45
2019-03-26T08:25:48.474Z,8.41
2019-03-26T08:26:48.447Z,8.41
2019-03-26T08:27:48.430Z,8.63
2019-03-26T08:28:48.402Z,8.71
2019-03-26T08:29:48.377Z,8.64
2019-03-26T08:30:50.168Z,8.61
2019-03-26T08:31:48.330Z,8.50
2019-03-26T08:32:48.307Z,8.38
2019-03-26T08:33:48.282Z,8.45
2019-03-26T08:34:48.258Z,8.49
2019-03-26T08:35:48.236Z,8.42
2019-03-26T08:36:48.211Z,8.63
2019-03-26T08:37:48.187Z,8.64
2019-03-26T08:38:48.163Z,8.82
2019-03-26T08:39:48.137Z,8.82
2019-03-26T08:40:48.114Z,8.92
2019-03-26T08:41:48.095Z,8.93
2019-03-26T08:42:48.068Z,8.99
2019-03-26T08:43:48.047Z,8.96
2019-03-26T08:44:48.023Z,9.13
2019-03-26T08:45:47.995Z,9.21
2019-03-26T08:46:47.976Z,9.40
2019-03-26T08:47:47.948Z,9.40
2019-03-26T08:48:47.924Z,9.44
2019-03-26T08:49:47.900Z,9.52
2019-03-26T08:50:47.877Z,9.58
2019-03-26T08:51:47.854Z,9.64
2019-03-26T08:52:47.834Z,9.56
2019-03-26T08:53:47.817Z,9.67
2019-03-26T08:54:47.786Z,9.70
2019-03-26T08:55:47.768Z,9.87
2019-03-26T08:56:47.741Z,9.91
2019-03-26T08:57:47.717Z,9.94
2019-03-26T08:58:47.692Z,9.74
2019-03-26T08:59:47.671Z,9.59
2019-03-26T09:00:47.660Z,9.37
2019-03-26T09:01:47.630Z,9.21
2019-03-26T09:02:47.604Z,9.09
2019-03-26T09:03:47.580Z,9.08
2019-03-26T09:04:47.560Z,9.24
2019-03-26T09:05:47.536Z,9.16
2019-03-26T09:06:47.512Z,9.19
2019-03-26T09:07:47.497Z,9.19
2019-03-26T09:08:47.472Z,9.18
2019-03-26T09:09:47.448Z,8.99
2019-03-26T09:10:51.969Z,8.75
2019-03-26T09:11:47.398Z,8.93
2019-03-26T09:12:47.374Z,8.78
2019-03-26T09:13:47.353Z,8.77
2019-03-26T09:14:47.327Z,8.75
2019-03-26T09:15:47.308Z,8.74
2019-03-26T09:16:47.283Z,8.78
2019-03-26T09:17:47.285Z,8.75
2019-03-26T09:18:47.237Z,8.78
2019-03-26T09:19:47.214Z,8.75
2019-03-26T09:20:47.188Z,8.61
2019-03-26T09:21:47.168Z,8.64
2019-03-26T09:22:47.141Z,8.75
2019-03-26T09:23:47.118Z,8.52
2019-03-26T09:24:47.094Z,8.50
2019-03-26T09:25:47.079Z,8.45
2019-03-26T09:26:47.047Z,8.39
2019-03-26T09:27:47.024Z,8.18
2019-03-26T09:28:47.960Z,8.20
2019-03-26T09:29:46.978Z,8.21
2019-03-26T09:30:46.953Z,8.31
2019-03-26T09:31:46.931Z,8.34
2019-03-26T09:32:46.913Z,8.41
2019-03-26T09:33:46.882Z,8.28
2019-03-26T09:34:46.865Z,8.21
2019-03-26T09:35:46.836Z,8.31
2019-03-26T09:36:46.812Z,8.23
2019-03-26T09:37:46.787Z,8.31
2019-03-26T09:38:46.762Z,8.24
2019-03-26T09:39:46.740Z,8.23
2019-03-26T09:40:46.716Z,8.26
2019-03-26T09:41:46.692Z,8.36
2019-03-26T09:42:46.671Z,8.32
2019-03-26T09:43:46.644Z,8.28
2019-03-26T09:44:46.627Z,8.39
2019-03-26T09:45:46.600Z,8.38
2019-03-26T09:46:46.572Z,8.44
2019-03-26T09:47:46.547Z,8.41
2019-03-26T09:48:46.529Z,8.45
2019-03-26T09:49:46.499Z,8.39
2019-03-26T09:50:46.475Z,8.45
2019-03-26T09:51:46.451Z,8.53
2019-03-26T09:52:46.429Z,8.64
2019-03-26T09:53:46.404Z,8.63
2019-03-26T09:54:46.381Z,8.64
2019-03-26T09:55:46.355Z,8.69
2019-03-26T09:56:46.333Z,8.71
2019-03-26T09:57:46.321Z,8.74
2019-03-26T09:58:46.290Z,8.72
2019-03-26T09:59:46.261Z,8.82
2019-03-26T10:00:46.323Z,8.82
2019-03-26T10:01:46.214Z,8.93
2019-03-26T10:02:46.192Z,8.78
2019-03-26T10:03:46.164Z,8.71
2019-03-26T10:04:46.144Z,8.78
2019-03-26T10:05:46.123Z,8.86
2019-03-26T10:06:46.099Z,8.86
2019-03-26T10:07:46.069Z,8.84
2019-03-26T10:08:52.247Z,8.75
2019-03-26T10:09:46.023Z,8.72
2019-03-26T10:10:46.000Z,8.78
2019-03-26T10:11:45.973Z,8.68
2019-03-26T10:12:45.956Z,8.78
2019-03-26T10:13:45.927Z,8.92
2019-03-26T10:14:45.900Z,9.03
2019-03-26T10:15:45.881Z,9.11
2019-03-26T10:16:45.854Z,9.21
2019-03-26T10:17:45.832Z,9.27
2019-03-26T10:18:45.806Z,9.36
2019-03-26T10:19:45.788Z,9.34
2019-03-26T10:20:45.766Z,9.29
2019-03-26T10:21:45.736Z,9.26
2019-03-26T10:22:45.713Z,9.39
2019-03-26T10:23:45.689Z,9.22
2019-03-26T10:24:45.686Z,9.21
2019-03-26T10:25:45.644Z,9.03
2019-03-26T10:26:45.618Z,9.03
2019-03-26T10:27:45.594Z,9.15
2019-03-26T10:28:45.570Z,9.21
2019-03-26T10:29:45.549Z,9.42
2019-03-26T10:30:45.523Z,9.39
2019-03-26T10:31:45.503Z,9.44
2019-03-26T10:32:45.481Z,9.44
2019-03-26T10:33:45.454Z,9.67
2019-03-26T10:34:45.433Z,9.77
2019-03-26T10:35:45.406Z,9.88
2019-03-26T10:36:45.386Z,10.05
2019-03-26T10:37:45.361Z,10.18
2019-03-26T10:38:45.337Z,10.33
2019-03-26T10:39:45.321Z,10.41
2019-03-26T10:40:45.310Z,10.34
2019-03-26T10:41:45.275Z,10.30
2019-03-26T10:42:45.247Z,10.36
2019-03-26T10:43:45.223Z,10.36
2019-03-26T10:44:45.203Z,10.36
2019-03-26T10:45:45.182Z,10.45
2019-03-26T10:46:45.157Z,10.69
2019-03-26T10:47:45.144Z,10.68
2019-03-26T10:48:45.118Z,11.26
2019-03-26T10:49:45.093Z,11.62
2019-03-26T10:50:45.067Z,11.56
2019-03-26T10:51:45.046Z,11.40
2019-03-26T10:52:45.044Z,11.41
2019-03-26T10:53:45.005Z,11.35
2019-03-26T10:54:44.982Z,11.41
2019-03-26T10:55:44.961Z,11.18
2019-03-26T10:56:44.939Z,11.01
2019-03-26T10:57:44.922Z,10.92
2019-03-26T10:58:44.894Z,11.00
2019-03-26T10:59:44.876Z,10.97
2019-03-26T11:00:44.854Z,10.92
2019-03-26T11:01:44.833Z,10.67
2019-03-26T11:02:44.811Z,10.61
2019-03-26T11:03:44.794Z,10.58
2019-03-26T11:04:44.776Z,10.51
2019-03-26T11:05:44.745Z,10.49
2019-03-26T11:06:44.725Z,10.46
2019-03-26T11:07:44.704Z,10.49
2019-03-26T11:08:45.315Z,10.71
2019-03-26T11:09:44.665Z,10.97
2019-03-26T11:10:44.641Z,10.92
2019-03-26T11:11:44.616Z,10.90
2019-03-26T11:12:44.595Z,10.84
2019-03-26T11:13:44.590Z,10.98
2019-03-26T11:14:44.602Z,10.94
2019-03-26T11:15:44.537Z,10.79
2019-03-26T11:16:44.572Z,10.45
2019-03-26T11:17:44.493Z,10.33
2019-03-26T11:18:44.466Z,10.17
2019-03-26T11:19:46.361Z,10.12
2019-03-26T11:20:44.423Z,10.17
2019-03-26T11:21:44.403Z,10.21
2019-03-26T11:22:44.383Z,10.13
2019-03-26T11:23:44.358Z,10.10
2019-03-26T11:24:44.334Z,10.13
2019-03-26T11:25:44.314Z,10.13
2019-03-26T11:26:44.291Z,10.23
2019-03-26T11:27:44.267Z,10.23
2019-03-26T11:28:44.253Z,10.34
2019-03-26T11:29:44.224Z,10.31
2019-03-26T11:30:44.200Z,10.33
2019-03-26T11:31:44.179Z,10.36
2019-03-26T11:32:44.157Z,10.39
2019-03-26T11:33:44.136Z,10.38
2019-03-26T11:34:44.114Z,10.39
2019-03-26T11:35:44.094Z,10.49
2019-03-26T11:36:44.071Z,10.39
2019-03-26T11:37:44.050Z,10.38
2019-03-26T11:38:44.025Z,10.30
2019-03-26T11:39:44.010Z,10.17
2019-03-26T11:40:43.982Z,9.92
2019-03-26T11:41:43.960Z,10.07
2019-03-26T11:42:43.938Z,10.05
2019-03-26T11:43:43.916Z,9.92
2019-03-26T11:44:43.895Z,9.92
2019-03-26T11:45:43.872Z,9.94
2019-03-26T11:46:43.852Z,9.95
2019-03-26T11:47:43.828Z,9.94
2019-03-26T11:48:43.805Z,9.92
2019-03-26T11:49:43.781Z,9.90
2019-03-26T11:50:43.758Z,9.91
2019-03-26T11:51:43.741Z,9.94
2019-03-26T11:52:43.716Z,9.91
2019-03-26T11:53:43.694Z,9.92
2019-03-26T11:54:43.674Z,9.87
2019-03-26T11:55:43.648Z,9.90
2019-03-26T11:56:43.626Z,9.92
2019-03-26T11:57:43.605Z,9.91
2019-03-26T11:58:43.585Z,9.91
2019-03-26T11:59:43.564Z,9.91
2019-03-26T12:00:43.540Z,9.91
2019-03-26T12:01:43.514Z,9.85
2019-03-26T12:02:43.491Z,9.77
2019-03-26T12:03:43.471Z,9.76
2019-03-26T12:04:43.448Z,9.74
2019-03-26T12:05:43.426Z,9.70
2019-03-26T12:06:43.407Z,9.67
2019-03-26T12:07:43.381Z,9.74
2019-03-26T12:08:43.401Z,9.74
2019-03-26T12:09:46.665Z,9.69
2019-03-26T12:10:43.319Z,9.72
2019-03-26T12:11:43.297Z,9.66
2019-03-26T12:12:43.270Z,9.72
2019-03-26T12:13:43.249Z,9.58
2019-03-26T12:14:43.261Z,9.66
2019-03-26T12:15:43.203Z,9.66
2019-03-26T12:16:43.181Z,9.64
2019-03-26T12:17:43.165Z,9.59
2019-03-26T12:18:43.136Z,9.62
2019-03-26T12:19:43.114Z,9.58
2019-03-26T12:20:43.093Z,9.56
2019-03-26T12:21:43.070Z,9.62
2019-03-26T12:22:43.047Z,9.69
2019-03-26T12:23:43.025Z,9.72
2019-03-26T12:24:43.006Z,9.69
2019-03-26T12:25:42.979Z,9.69
2019-03-26T12:26:42.957Z,9.64
2019-03-26T12:27:42.942Z,9.66
2019-03-26T12:28:42.914Z,9.58
2019-03-26T12:29:42.923Z,9.64
2019-03-26T12:30:42.869Z,9.69
2019-03-26T12:31:42.852Z,9.64
2019-03-26T12:32:42.824Z,9.49
2019-03-26T12:33:42.801Z,9.58
2019-03-26T12:34:42.780Z,9.48
2019-03-26T12:35:42.755Z,9.45
2019-03-26T12:36:42.734Z,9.40
2019-03-26T12:37:42.734Z,9.39
2019-03-26T12:38:42.695Z,9.36
2019-03-26T12:39:44.258Z,9.34
2019-03-26T12:40:42.642Z,9.37
2019-03-26T12:41:42.621Z,9.39
2019-03-26T12:42:42.598Z,9.31
2019-03-26T12:43:42.577Z,9.36
2019-03-26T12:44:42.573Z,9.37
2019-03-26T12:45:42.537Z,9.39
2019-03-26T12:46:42.506Z,9.37
2019-03-26T12:47:42.483Z,9.36
2019-03-26T12:48:42.462Z,9.37
2019-03-26T12:49:42.438Z,9.47
2019-03-26T12:50:42.416Z,9.52
2019-03-26T12:51:42.395Z,9.59
2019-03-26T12:52:42.372Z,9.55
2019-03-26T12:53:42.348Z,9.56
2019-03-26T12:54:42.324Z,9.62
2019-03-26T12:55:42.302Z,9.64
2019-03-26T12:56:42.279Z,9.67
2019-03-26T12:57:42.259Z,9.64
2019-03-26T12:58:42.238Z,9.70
2019-03-26T12:59:42.218Z,9.82
2019-03-26T13:00:42.190Z,9.82
2019-03-26T13:01:42.172Z,9.74
2019-03-26T13:02:42.142Z,9.77
2019-03-26T13:03:42.122Z,9.77
2019-03-26T13:04:42.099Z,9.82
2019-03-26T13:05:42.078Z,9.90
2019-03-26T13:06:42.098Z,9.91
2019-03-26T13:07:42.085Z,9.92
2019-03-26T13:08:42.009Z,9.84
2019-03-26T13:09:42.159Z,9.85
2019-03-26T13:10:52.866Z,9.84
2019-03-26T13:11:41.942Z,9.91
2019-03-26T13:12:41.920Z,9.94
2019-03-26T13:13:41.896Z,9.90
2019-03-26T13:14:41.878Z,9.90
2019-03-26T13:15:41.888Z,9.84